sensor_id;sensor_type;location;lat;lon;timestamp;P1;durP1;ratioP1;P2;durP2;ratioP2
75603;SDS011;64187;51.010;13.792;2024-02-23T00:04:02;2.38;;;1.88;;
75603;SDS011;64187;51.010;13.792;2024-02-23T00:09:01;1.88;;;1.58;;
75603;SDS011;64187;51.010;13.792;2024-02-23T00:14:00;1.50;;;1.20;;
75603;SDS011;64187;51.010;13.792;2024-02-23T00:18:59;1.23;;;1.13;;
75603;SDS011;64187;51.010;13.792;2024-02-23T00:23:58;1.08;;;0.90;;
75603;SDS011;64187;51.010;13.792;2024-02-23T00:28:57;1.58;;;0.80;;
75603;SDS011;64187;51.010;13.792;2024-02-23T00:33:56;1.52;;;1.30;;
75603;SDS011;64187;51.010;13.792;2024-02-23T00:38:55;1.95;;;1.50;;
75603;SDS011;64187;51.010;13.792;2024-02-23T00:43:54;2.13;;;1.08;;
75603;SDS011;64187;51.010;13.792;2024-02-23T00:48:53;1.25;;;0.93;;
75603;SDS011;64187;51.010;13.792;2024-02-23T00:53:53;1.17;;;0.50;;
75603;SDS011;64187;51.010;13.792;2024-02-23T00:58:52;1.55;;;0.30;;
75603;SDS011;64187;51.010;13.792;2024-02-23T01:03:51;0.38;;;0.20;;
75603;SDS011;64187;51.010;13.792;2024-02-23T01:08:50;0.30;;;0.17;;
75603;SDS011;64187;51.010;13.792;2024-02-23T01:13:48;0.50;;;0.20;;
75603;SDS011;64187;51.010;13.792;2024-02-23T01:18:47;0.20;;;0.20;;
75603;SDS011;64187;51.010;13.792;2024-02-23T01:23:46;0.50;;;0.20;;
75603;SDS011;64187;51.010;13.792;2024-02-23T01:28:45;0.65;;;0.40;;
75603;SDS011;64187;51.010;13.792;2024-02-23T01:33:44;0.32;;;0.28;;
75603;SDS011;64187;51.010;13.792;2024-02-23T01:38:43;0.90;;;0.77;;
75603;SDS011;64187;51.010;13.792;2024-02-23T01:43:42;0.47;;;0.30;;
75603;SDS011;64187;51.010;13.792;2024-02-23T01:48:41;0.50;;;0.50;;
75603;SDS011;64187;51.010;13.792;2024-02-23T01:53:40;0.38;;;0.30;;
75603;SDS011;64187;51.010;13.792;2024-02-23T01:58:40;0.70;;;0.40;;
75603;SDS011;64187;51.010;13.792;2024-02-23T02:03:39;0.43;;;0.30;;
75603;SDS011;64187;51.010;13.792;2024-02-23T02:08:38;0.40;;;0.25;;
75603;SDS011;64187;51.010;13.792;2024-02-23T02:13:37;0.38;;;0.30;;
75603;SDS011;64187;51.010;13.792;2024-02-23T02:18:36;0.30;;;0.25;;
75603;SDS011;64187;51.010;13.792;2024-02-23T02:23:35;0.25;;;0.15;;
75603;SDS011;64187;51.010;13.792;2024-02-23T02:28:35;0.40;;;0.40;;
75603;SDS011;64187;51.010;13.792;2024-02-23T02:33:34;0.38;;;0.20;;
75603;SDS011;64187;51.010;13.792;2024-02-23T02:38:33;0.30;;;0.30;;
75603;SDS011;64187;51.010;13.792;2024-02-23T02:43:32;3.22;;;0.30;;
75603;SDS011;64187;51.010;13.792;2024-02-23T02:48:31;0.32;;;0.20;;
75603;SDS011;64187;51.010;13.792;2024-02-23T02:53:30;0.88;;;0.30;;
75603;SDS011;64187;51.010;13.792;2024-02-23T02:58:30;0.50;;;0.40;;
75603;SDS011;64187;51.010;13.792;2024-02-23T03:03:28;0.98;;;0.28;;
75603;SDS011;64187;51.010;13.792;2024-02-23T03:08:27;0.43;;;0.22;;
75603;SDS011;64187;51.010;13.792;2024-02-23T03:13:27;0.28;;;0.20;;
75603;SDS011;64187;51.010;13.792;2024-02-23T03:18:26;0.50;;;0.20;;
75603;SDS011;64187;51.010;13.792;2024-02-23T03:23:26;0.35;;;0.10;;
75603;SDS011;64187;51.010;13.792;2024-02-23T03:28:25;0.60;;;0.60;;
75603;SDS011;64187;51.010;13.792;2024-02-23T03:33:24;0.35;;;0.25;;
75603;SDS011;64187;51.010;13.792;2024-02-23T03:38:23;1.35;;;0.22;;
75603;SDS011;64187;51.010;13.792;2024-02-23T03:43:22;1.08;;;0.20;;
75603;SDS011;64187;51.010;13.792;2024-02-23T03:48:21;0.20;;;0.20;;
75603;SDS011;64187;51.010;13.792;2024-02-23T03:53:19;0.17;;;0.17;;
75603;SDS011;64187;51.010;13.792;2024-02-23T03:58:18;0.85;;;0.20;;
75603;SDS011;64187;51.010;13.792;2024-02-23T04:03:17;2.38;;;0.20;;
75603;SDS011;64187;51.010;13.792;2024-02-23T04:08:16;0.17;;;0.17;;
75603;SDS011;64187;51.010;13.792;2024-02-23T04:13:15;0.90;;;0.30;;
75603;SDS011;64187;51.010;13.792;2024-02-23T04:18:16;0.90;;;0.20;;
75603;SDS011;64187;51.010;13.792;2024-02-23T04:23:15;0.93;;;0.20;;
75603;SDS011;64187;51.010;13.792;2024-02-23T04:28:14;0.20;;;0.10;;
75603;SDS011;64187;51.010;13.792;2024-02-23T04:33:13;0.30;;;0.20;;
75603;SDS011;64187;51.010;13.792;2024-02-23T04:38:12;0.60;;;0.20;;
75603;SDS011;64187;51.010;13.792;2024-02-23T04:43:11;0.35;;;0.20;;
75603;SDS011;64187;51.010;13.792;2024-02-23T04:48:10;0.32;;;0.20;;
75603;SDS011;64187;51.010;13.792;2024-02-23T04:53:09;0.65;;;0.30;;
75603;SDS011;64187;51.010;13.792;2024-02-23T04:58:08;0.77;;;0.30;;
75603;SDS011;64187;51.010;13.792;2024-02-23T05:03:07;1.48;;;0.35;;
75603;SDS011;64187;51.010;13.792;2024-02-23T05:08:10;0.70;;;0.30;;
75603;SDS011;64187;51.010;13.792;2024-02-23T05:13:09;1.15;;;0.30;;
75603;SDS011;64187;51.010;13.792;2024-02-23T05:18:08;0.22;;;0.17;;
75603;SDS011;64187;51.010;13.792;2024-02-23T05:23:07;1.88;;;0.35;;
75603;SDS011;64187;51.010;13.792;2024-02-23T05:28:06;1.25;;;0.70;;
75603;SDS011;64187;51.010;13.792;2024-02-23T05:33:05;0.98;;;0.73;;
75603;SDS011;64187;51.010;13.792;2024-02-23T05:38:04;1.15;;;0.50;;
75603;SDS011;64187;51.010;13.792;2024-02-23T05:43:04;0.57;;;0.30;;
75603;SDS011;64187;51.010;13.792;2024-02-23T05:48:03;0.40;;;0.30;;
75603;SDS011;64187;51.010;13.792;2024-02-23T05:53:03;2.58;;;0.50;;
75603;SDS011;64187;51.010;13.792;2024-02-23T05:58:03;0.75;;;0.50;;
75603;SDS011;64187;51.010;13.792;2024-02-23T06:03:03;0.63;;;0.43;;
75603;SDS011;64187;51.010;13.792;2024-02-23T06:08:02;0.60;;;0.15;;
75603;SDS011;64187;51.010;13.792;2024-02-23T06:13:01;0.90;;;0.22;;
75603;SDS011;64187;51.010;13.792;2024-02-23T06:18:03;0.28;;;0.22;;
75603;SDS011;64187;51.010;13.792;2024-02-23T06:23:05;1.17;;;0.40;;
75603;SDS011;64187;51.010;13.792;2024-02-23T06:28:04;0.95;;;0.30;;
75603;SDS011;64187;51.010;13.792;2024-02-23T06:33:05;2.83;;;0.30;;
75603;SDS011;64187;51.010;13.792;2024-02-23T06:38:04;1.00;;;0.68;;
75603;SDS011;64187;51.010;13.792;2024-02-23T06:43:04;1.48;;;0.40;;
75603;SDS011;64187;51.010;13.792;2024-02-23T06:48:03;2.28;;;0.50;;
75603;SDS011;64187;51.010;13.792;2024-02-23T06:53:02;0.40;;;0.22;;
75603;SDS011;64187;51.010;13.792;2024-02-23T06:58:02;0.82;;;0.30;;
75603;SDS011;64187;51.010;13.792;2024-02-23T07:03:03;0.45;;;0.20;;
75603;SDS011;64187;51.010;13.792;2024-02-23T07:08:02;0.93;;;0.22;;
75603;SDS011;64187;51.010;13.792;2024-02-23T07:13:02;1.42;;;0.32;;
75603;SDS011;64187;51.010;13.792;2024-02-23T07:18:04;0.73;;;0.20;;
75603;SDS011;64187;51.010;13.792;2024-02-23T07:23:04;1.33;;;0.30;;
75603;SDS011;64187;51.010;13.792;2024-02-23T07:28:04;1.27;;;0.25;;
75603;SDS011;64187;51.010;13.792;2024-02-23T07:33:03;2.10;;;0.35;;
75603;SDS011;64187;51.010;13.792;2024-02-23T07:38:02;1.05;;;0.40;;
75603;SDS011;64187;51.010;13.792;2024-02-23T07:43:01;1.73;;;0.30;;
75603;SDS011;64187;51.010;13.792;2024-02-23T07:48:00;1.27;;;0.30;;
75603;SDS011;64187;51.010;13.792;2024-02-23T07:52:59;0.93;;;0.43;;
75603;SDS011;64187;51.010;13.792;2024-02-23T07:57:58;0.50;;;0.28;;
75603;SDS011;64187;51.010;13.792;2024-02-23T08:03:00;1.50;;;0.32;;
75603;SDS011;64187;51.010;13.792;2024-02-23T08:08:00;1.38;;;0.20;;
75603;SDS011;64187;51.010;13.792;2024-02-23T08:12:59;1.70;;;0.22;;
75603;SDS011;64187;51.010;13.792;2024-02-23T08:17:58;0.25;;;0.20;;
75603;SDS011;64187;51.010;13.792;2024-02-23T08:22:57;0.63;;;0.32;;
75603;SDS011;64187;51.010;13.792;2024-02-23T08:27:56;0.90;;;0.20;;
75603;SDS011;64187;51.010;13.792;2024-02-23T08:32:55;1.67;;;0.40;;
75603;SDS011;64187;51.010;13.792;2024-02-23T08:37:54;1.17;;;0.20;;
75603;SDS011;64187;51.010;13.792;2024-02-23T08:42:53;1.05;;;0.50;;
75603;SDS011;64187;51.010;13.792;2024-02-23T08:47:52;0.65;;;0.35;;
75603;SDS011;64187;51.010;13.792;2024-02-23T08:52:51;3.17;;;1.10;;
75603;SDS011;64187;51.010;13.792;2024-02-23T08:57:50;0.40;;;0.20;;
75603;SDS011;64187;51.010;13.792;2024-02-23T09:02:49;1.17;;;0.40;;
75603;SDS011;64187;51.010;13.792;2024-02-23T09:07:50;1.33;;;0.40;;
75603;SDS011;64187;51.010;13.792;2024-02-23T09:12:49;0.52;;;0.10;;
75603;SDS011;64187;51.010;13.792;2024-02-23T09:17:48;1.38;;;0.47;;
75603;SDS011;64187;51.010;13.792;2024-02-23T09:22:47;1.05;;;0.20;;
75603;SDS011;64187;51.010;13.792;2024-02-23T09:27:46;0.43;;;0.40;;
75603;SDS011;64187;51.010;13.792;2024-02-23T09:32:45;1.83;;;0.50;;
75603;SDS011;64187;51.010;13.792;2024-02-23T09:37:44;1.02;;;0.30;;
75603;SDS011;64187;51.010;13.792;2024-02-23T09:42:43;0.93;;;0.50;;
75603;SDS011;64187;51.010;13.792;2024-02-23T09:47:54;1.45;;;0.30;;
75603;SDS011;64187;51.010;13.792;2024-02-23T09:52:56;0.40;;;0.38;;
75603;SDS011;64187;51.010;13.792;2024-02-23T09:57:57;1.02;;;0.22;;
75603;SDS011;64187;51.010;13.792;2024-02-23T10:02:58;1.35;;;0.30;;
75603;SDS011;64187;51.010;13.792;2024-02-23T10:07:57;1.90;;;0.22;;
75603;SDS011;64187;51.010;13.792;2024-02-23T10:12:57;0.82;;;0.25;;
75603;SDS011;64187;51.010;13.792;2024-02-23T10:17:57;0.40;;;0.30;;
75603;SDS011;64187;51.010;13.792;2024-02-23T10:22:56;1.17;;;0.38;;
75603;SDS011;64187;51.010;13.792;2024-02-23T10:27:55;0.60;;;0.10;;
75603;SDS011;64187;51.010;13.792;2024-02-23T10:32:55;0.95;;;0.50;;
75603;SDS011;64187;51.010;13.792;2024-02-23T10:37:55;1.70;;;0.40;;
75603;SDS011;64187;51.010;13.792;2024-02-23T10:42:55;0.70;;;0.30;;
75603;SDS011;64187;51.010;13.792;2024-02-23T10:47:56;1.00;;;0.30;;
75603;SDS011;64187;51.010;13.792;2024-02-23T10:52:56;1.40;;;0.30;;
75603;SDS011;64187;51.010;13.792;2024-02-23T10:57:56;0.85;;;0.30;;
75603;SDS011;64187;51.010;13.792;2024-02-23T11:02:57;0.85;;;0.50;;
75603;SDS011;64187;51.010;13.792;2024-02-23T11:07:56;1.08;;;0.30;;
75603;SDS011;64187;51.010;13.792;2024-02-23T11:12:58;1.40;;;0.30;;
75603;SDS011;64187;51.010;13.792;2024-02-23T11:17:58;1.60;;;0.20;;
75603;SDS011;64187;51.010;13.792;2024-02-23T11:22:58;0.80;;;0.50;;
75603;SDS011;64187;51.010;13.792;2024-02-23T11:27:58;4.35;;;0.80;;
75603;SDS011;64187;51.010;13.792;2024-02-23T11:32:58;2.80;;;0.50;;
75603;SDS011;64187;51.010;13.792;2024-02-23T11:37:58;1.23;;;0.40;;
75603;SDS011;64187;51.010;13.792;2024-02-23T11:42:59;2.17;;;0.20;;
75603;SDS011;64187;51.010;13.792;2024-02-23T11:48:01;1.52;;;0.32;;
75603;SDS011;64187;51.010;13.792;2024-02-23T11:53:01;1.50;;;0.40;;
75603;SDS011;64187;51.010;13.792;2024-02-23T11:58:00;0.73;;;0.10;;
75603;SDS011;64187;51.010;13.792;2024-02-23T12:03:09;0.93;;;0.10;;
75603;SDS011;64187;51.010;13.792;2024-02-23T12:08:08;0.95;;;0.20;;
75603;SDS011;64187;51.010;13.792;2024-02-23T12:13:07;1.25;;;0.45;;
75603;SDS011;64187;51.010;13.792;2024-02-23T12:18:06;0.52;;;0.45;;
75603;SDS011;64187;51.010;13.792;2024-02-23T12:23:05;1.00;;;0.20;;
75603;SDS011;64187;51.010;13.792;2024-02-23T12:28:06;0.52;;;0.20;;
75603;SDS011;64187;51.010;13.792;2024-02-23T12:33:06;0.17;;;0.10;;
75603;SDS011;64187;51.010;13.792;2024-02-23T12:38:10;1.00;;;0.20;;
75603;SDS011;64187;51.010;13.792;2024-02-23T12:43:09;0.55;;;0.20;;
75603;SDS011;64187;51.010;13.792;2024-02-23T12:48:08;0.22;;;0.15;;
75603;SDS011;64187;51.010;13.792;2024-02-23T12:53:07;0.47;;;0.10;;
75603;SDS011;64187;51.010;13.792;2024-02-23T12:58:07;0.57;;;0.15;;
75603;SDS011;64187;51.010;13.792;2024-02-23T13:03:05;2.83;;;0.30;;
75603;SDS011;64187;51.010;13.792;2024-02-23T13:08:05;1.77;;;0.20;;
75603;SDS011;64187;51.010;13.792;2024-02-23T13:13:05;1.08;;;0.45;;
75603;SDS011;64187;51.010;13.792;2024-02-23T13:18:04;1.30;;;0.22;;
75603;SDS011;64187;51.010;13.792;2024-02-23T13:23:03;0.88;;;0.47;;
75603;SDS011;64187;51.010;13.792;2024-02-23T13:28:03;0.85;;;0.32;;
75603;SDS011;64187;51.010;13.792;2024-02-23T13:33:03;0.45;;;0.22;;
75603;SDS011;64187;51.010;13.792;2024-02-23T13:38:03;1.42;;;0.25;;
75603;SDS011;64187;51.010;13.792;2024-02-23T13:43:03;1.55;;;0.43;;
75603;SDS011;64187;51.010;13.792;2024-02-23T13:48:02;0.80;;;0.32;;
75603;SDS011;64187;51.010;13.792;2024-02-23T13:53:04;1.42;;;0.75;;
75603;SDS011;64187;51.010;13.792;2024-02-23T13:58:03;2.50;;;0.52;;
75603;SDS011;64187;51.010;13.792;2024-02-23T14:03:03;1.10;;;0.32;;
75603;SDS011;64187;51.010;13.792;2024-02-23T14:08:02;0.68;;;0.43;;
75603;SDS011;64187;51.010;13.792;2024-02-23T14:13:06;1.30;;;0.35;;
75603;SDS011;64187;51.010;13.792;2024-02-23T14:18:05;2.45;;;0.50;;
75603;SDS011;64187;51.010;13.792;2024-02-23T14:23:04;1.55;;;0.57;;
75603;SDS011;64187;51.010;13.792;2024-02-23T14:28:03;0.80;;;0.40;;
75603;SDS011;64187;51.010;13.792;2024-02-23T14:33:02;1.40;;;0.40;;
75603;SDS011;64187;51.010;13.792;2024-02-23T14:38:01;2.08;;;0.80;;
75603;SDS011;64187;51.010;13.792;2024-02-23T14:43:01;1.20;;;0.45;;
75603;SDS011;64187;51.010;13.792;2024-02-23T14:48:00;1.13;;;0.57;;
75603;SDS011;64187;51.010;13.792;2024-02-23T14:52:59;3.03;;;0.65;;
75603;SDS011;64187;51.010;13.792;2024-02-23T14:57:59;1.67;;;0.47;;
75603;SDS011;64187;51.010;13.792;2024-02-23T15:02:57;2.53;;;0.60;;
75603;SDS011;64187;51.010;13.792;2024-02-23T15:07:57;1.15;;;0.80;;
75603;SDS011;64187;51.010;13.792;2024-02-23T15:12:56;1.88;;;0.93;;
75603;SDS011;64187;51.010;13.792;2024-02-23T15:17:55;1.33;;;0.65;;
75603;SDS011;64187;51.010;13.792;2024-02-23T15:22:54;1.73;;;0.70;;
75603;SDS011;64187;51.010;13.792;2024-02-23T15:27:53;3.38;;;0.63;;
75603;SDS011;64187;51.010;13.792;2024-02-23T15:32:56;1.45;;;0.60;;
75603;SDS011;64187;51.010;13.792;2024-02-23T15:37:55;6.65;;;1.10;;
75603;SDS011;64187;51.010;13.792;2024-02-23T15:42:55;1.98;;;0.85;;
75603;SDS011;64187;51.010;13.792;2024-02-23T15:47:54;2.95;;;0.90;;
75603;SDS011;64187;51.010;13.792;2024-02-23T15:52:53;2.38;;;0.77;;
75603;SDS011;64187;51.010;13.792;2024-02-23T15:57:52;2.10;;;1.13;;
75603;SDS011;64187;51.010;13.792;2024-02-23T16:02:51;1.50;;;0.80;;
75603;SDS011;64187;51.010;13.792;2024-02-23T16:07:50;3.60;;;0.98;;
75603;SDS011;64187;51.010;13.792;2024-02-23T16:12:49;2.65;;;0.85;;
75603;SDS011;64187;51.010;13.792;2024-02-23T16:17:51;2.25;;;0.75;;
75603;SDS011;64187;51.010;13.792;2024-02-23T16:22:50;2.40;;;0.88;;
75603;SDS011;64187;51.010;13.792;2024-02-23T16:27:49;2.45;;;1.05;;
75603;SDS011;64187;51.010;13.792;2024-02-23T16:32:48;1.83;;;0.80;;
75603;SDS011;64187;51.010;13.792;2024-02-23T16:37:48;3.10;;;1.08;;
75603;SDS011;64187;51.010;13.792;2024-02-23T16:42:47;2.50;;;0.98;;
75603;SDS011;64187;51.010;13.792;2024-02-23T16:47:46;3.55;;;1.25;;
75603;SDS011;64187;51.010;13.792;2024-02-23T16:52:46;3.60;;;1.33;;
75603;SDS011;64187;51.010;13.792;2024-02-23T16:57:45;1.20;;;0.60;;
75603;SDS011;64187;51.010;13.792;2024-02-23T17:02:44;2.83;;;1.55;;
75603;SDS011;64187;51.010;13.792;2024-02-23T17:07:43;2.45;;;1.17;;
75603;SDS011;64187;51.010;13.792;2024-02-23T17:12:42;3.55;;;1.30;;
75603;SDS011;64187;51.010;13.792;2024-02-23T17:17:46;4.57;;;1.85;;
75603;SDS011;64187;51.010;13.792;2024-02-23T17:22:46;5.80;;;1.80;;
75603;SDS011;64187;51.010;13.792;2024-02-23T17:27:46;2.78;;;1.50;;
75603;SDS011;64187;51.010;13.792;2024-02-23T17:32:48;3.47;;;1.52;;
75603;SDS011;64187;51.010;13.792;2024-02-23T17:37:48;3.95;;;1.52;;
75603;SDS011;64187;51.010;13.792;2024-02-23T17:42:47;3.50;;;2.15;;
75603;SDS011;64187;51.010;13.792;2024-02-23T17:47:46;3.17;;;1.10;;
75603;SDS011;64187;51.010;13.792;2024-02-23T17:52:45;3.67;;;2.05;;
75603;SDS011;64187;51.010;13.792;2024-02-23T17:57:46;2.90;;;1.98;;
75603;SDS011;64187;51.010;13.792;2024-02-23T18:02:45;7.13;;;2.55;;
75603;SDS011;64187;51.010;13.792;2024-02-23T18:07:44;4.85;;;2.30;;
75603;SDS011;64187;51.010;13.792;2024-02-23T18:12:43;5.25;;;2.67;;
75603;SDS011;64187;51.010;13.792;2024-02-23T18:17:42;5.80;;;2.08;;
75603;SDS011;64187;51.010;13.792;2024-02-23T18:22:41;3.72;;;2.20;;
75603;SDS011;64187;51.010;13.792;2024-02-23T18:27:40;5.78;;;3.05;;
75603;SDS011;64187;51.010;13.792;2024-02-23T18:32:39;6.07;;;2.63;;
75603;SDS011;64187;51.010;13.792;2024-02-23T18:37:39;7.40;;;3.17;;
75603;SDS011;64187;51.010;13.792;2024-02-23T18:42:38;6.30;;;3.33;;
75603;SDS011;64187;51.010;13.792;2024-02-23T18:47:38;4.75;;;3.05;;
75603;SDS011;64187;51.010;13.792;2024-02-23T18:52:41;5.28;;;3.15;;
75603;SDS011;64187;51.010;13.792;2024-02-23T18:57:42;5.82;;;3.85;;
75603;SDS011;64187;51.010;13.792;2024-02-23T19:02:41;5.30;;;3.03;;
75603;SDS011;64187;51.010;13.792;2024-02-23T19:07:43;5.13;;;3.10;;
75603;SDS011;64187;51.010;13.792;2024-02-23T19:12:42;6.13;;;4.18;;
75603;SDS011;64187;51.010;13.792;2024-02-23T19:17:41;5.25;;;3.17;;
75603;SDS011;64187;51.010;13.792;2024-02-23T19:22:41;7.28;;;3.25;;
75603;SDS011;64187;51.010;13.792;2024-02-23T19:27:40;9.50;;;3.10;;
75603;SDS011;64187;51.010;13.792;2024-02-23T19:32:39;4.00;;;2.22;;
75603;SDS011;64187;51.010;13.792;2024-02-23T19:37:38;8.95;;;2.65;;
75603;SDS011;64187;51.010;13.792;2024-02-23T19:42:37;9.85;;;2.95;;
75603;SDS011;64187;51.010;13.792;2024-02-23T19:47:36;4.45;;;2.70;;
75603;SDS011;64187;51.010;13.792;2024-02-23T19:52:35;5.80;;;2.90;;
75603;SDS011;64187;51.010;13.792;2024-02-23T19:57:34;5.25;;;2.40;;
75603;SDS011;64187;51.010;13.792;2024-02-23T20:02:33;4.55;;;2.70;;
75603;SDS011;64187;51.010;13.792;2024-02-23T20:07:33;7.53;;;2.33;;
75603;SDS011;64187;51.010;13.792;2024-02-23T20:12:32;6.35;;;2.53;;
75603;SDS011;64187;51.010;13.792;2024-02-23T20:17:31;4.78;;;2.20;;
75603;SDS011;64187;51.010;13.792;2024-02-23T20:22:32;3.83;;;2.00;;
75603;SDS011;64187;51.010;13.792;2024-02-23T20:27:31;4.03;;;2.10;;
75603;SDS011;64187;51.010;13.792;2024-02-23T20:32:30;4.32;;;2.42;;
75603;SDS011;64187;51.010;13.792;2024-02-23T20:37:30;4.88;;;3.00;;
75603;SDS011;64187;51.010;13.792;2024-02-23T20:42:30;7.78;;;3.08;;
75603;SDS011;64187;51.010;13.792;2024-02-23T20:47:29;5.95;;;3.20;;
75603;SDS011;64187;51.010;13.792;2024-02-23T20:52:28;6.50;;;2.92;;
75603;SDS011;64187;51.010;13.792;2024-02-23T20:57:27;4.60;;;2.45;;
75603;SDS011;64187;51.010;13.792;2024-02-23T21:02:26;7.68;;;2.80;;
75603;SDS011;64187;51.010;13.792;2024-02-23T21:07:25;4.13;;;2.58;;
75603;SDS011;64187;51.010;13.792;2024-02-23T21:12:24;3.90;;;2.25;;
75603;SDS011;64187;51.010;13.792;2024-02-23T21:17:23;5.40;;;2.58;;
75603;SDS011;64187;51.010;13.792;2024-02-23T21:22:22;4.88;;;2.65;;
75603;SDS011;64187;51.010;13.792;2024-02-23T21:27:21;6.90;;;3.08;;
75603;SDS011;64187;51.010;13.792;2024-02-23T21:32:20;4.78;;;2.90;;
75603;SDS011;64187;51.010;13.792;2024-02-23T21:37:19;9.60;;;2.80;;
75603;SDS011;64187;51.010;13.792;2024-02-23T21:42:19;4.82;;;2.45;;
75603;SDS011;64187;51.010;13.792;2024-02-23T21:47:18;6.63;;;2.78;;
75603;SDS011;64187;51.010;13.792;2024-02-23T21:52:17;5.72;;;2.97;;
75603;SDS011;64187;51.010;13.792;2024-02-23T21:57:15;4.13;;;2.58;;
75603;SDS011;64187;51.010;13.792;2024-02-23T22:02:14;4.22;;;2.53;;
75603;SDS011;64187;51.010;13.792;2024-02-23T22:07:13;4.28;;;2.58;;
75603;SDS011;64187;51.010;13.792;2024-02-23T22:12:12;5.13;;;2.55;;
75603;SDS011;64187;51.010;13.792;2024-02-23T22:17:11;4.75;;;2.50;;
75603;SDS011;64187;51.010;13.792;2024-02-23T22:22:10;6.57;;;2.70;;
75603;SDS011;64187;51.010;13.792;2024-02-23T22:27:09;5.57;;;2.88;;
75603;SDS011;64187;51.010;13.792;2024-02-23T22:32:08;6.07;;;3.05;;
75603;SDS011;64187;51.010;13.792;2024-02-23T22:37:07;5.47;;;3.20;;
75603;SDS011;64187;51.010;13.792;2024-02-23T22:42:06;4.97;;;2.97;;
75603;SDS011;64187;51.010;13.792;2024-02-23T22:47:06;7.13;;;2.95;;
75603;SDS011;64187;51.010;13.792;2024-02-23T22:52:06;5.65;;;3.13;;
75603;SDS011;64187;51.010;13.792;2024-02-23T22:57:05;7.15;;;3.10;;
75603;SDS011;64187;51.010;13.792;2024-02-23T23:02:03;6.97;;;3.28;;
75603;SDS011;64187;51.010;13.792;2024-02-23T23:07:03;8.70;;;3.53;;
75603;SDS011;64187;51.010;13.792;2024-02-23T23:12:02;5.13;;;2.55;;
75603;SDS011;64187;51.010;13.792;2024-02-23T23:17:02;6.43;;;2.70;;
75603;SDS011;64187;51.010;13.792;2024-02-23T23:22:01;6.25;;;2.70;;
75603;SDS011;64187;51.010;13.792;2024-02-23T23:27:01;5.15;;;3.03;;
75603;SDS011;64187;51.010;13.792;2024-02-23T23:32:00;6.38;;;2.58;;
75603;SDS011;64187;51.010;13.792;2024-02-23T23:37:00;7.88;;;3.30;;
75603;SDS011;64187;51.010;13.792;2024-02-23T23:41:59;5.95;;;3.60;;
75603;SDS011;64187;51.010;13.792;2024-02-23T23:46:58;5.75;;;3.03;;
75603;SDS011;64187;51.010;13.792;2024-02-23T23:51:57;5.13;;;2.75;;
75603;SDS011;64187;51.010;13.792;2024-02-23T23:57:02;5.28;;;3.33;;
